sensor_id;sensor_type;location;lat;lon;timestamp;pressure;altitude;pressure_sealevel;temperature;humidity
45369;BME280;51342;55.250;37.668;2023-02-23T00:02:04;99540.91;;;-16.92;65.31
45369;BME280;51342;55.250;37.668;2023-02-23T00:04:36;99532.59;;;-16.92;65.47
45369;BME280;51342;55.250;37.668;2023-02-23T00:07:08;99544.78;;;-16.88;65.47
45369;BME280;51342;55.250;37.668;2023-02-23T00:09:42;99537.78;;;-16.91;65.25
45369;BME280;51342;55.250;37.668;2023-02-23T00:12:14;99545.19;;;-16.91;65.70
45369;BME280;51342;55.250;37.668;2023-02-23T00:14:47;99548.09;;;-16.93;65.65
45369;BME280;51342;55.250;37.668;2023-02-23T00:17:18;99551.72;;;-16.91;65.46
45369;BME280;51342;55.250;37.668;2023-02-23T00:19:50;99546.53;;;-16.93;65.46
45369;BME280;51342;55.250;37.668;2023-02-23T00:22:23;99560.47;;;-16.93;65.41
45369;BME280;51342;55.250;37.668;2023-02-23T00:24:55;99555.28;;;-16.95;65.42
45369;BME280;51342;55.250;37.668;2023-02-23T00:27:27;99565.19;;;-16.95;65.53
45369;BME280;51342;55.250;37.668;2023-02-23T00:30:01;99562.44;;;-16.96;65.42
45369;BME280;51342;55.250;37.668;2023-02-23T00:32:33;99565.44;;;-16.93;65.73
45369;BME280;51342;55.250;37.668;2023-02-23T00:35:06;99563.63;;;-16.94;65.35
45369;BME280;51342;55.250;37.668;2023-02-23T00:37:48;99564.69;;;-16.98;65.37
45369;BME280;51342;55.250;37.668;2023-02-23T00:40:19;99570.38;;;-16.93;65.47
45369;BME280;51342;55.250;37.668;2023-02-23T00:42:53;99574.66;;;-16.92;65.51
45369;BME280;51342;55.250;37.668;2023-02-23T00:45:25;99579.59;;;-16.92;65.46
45369;BME280;51342;55.250;37.668;2023-02-23T00:47:56;99574.19;;;-16.95;65.59
45369;BME280;51342;55.250;37.668;2023-02-23T00:50:28;99570.31;;;-16.99;65.58
45369;BME280;51342;55.250;37.668;2023-02-23T00:52:59;99592.41;;;-16.95;65.52
45369;BME280;51342;55.250;37.668;2023-02-23T00:55:31;99586.56;;;-16.95;65.38
45369;BME280;51342;55.250;37.668;2023-02-23T00:58:03;99584.41;;;-17.03;65.57
45369;BME280;51342;55.250;37.668;2023-02-23T01:00:34;99591.66;;;-16.99;65.45
45369;BME280;51342;55.250;37.668;2023-02-23T01:03:12;99594.31;;;-17.19;65.53
45369;BME280;51342;55.250;37.668;2023-02-23T01:05:44;99592.34;;;-17.16;65.67
45369;BME280;51342;55.250;37.668;2023-02-23T01:08:17;99585.19;;;-17.14;65.56
45369;BME280;51342;55.250;37.668;2023-02-23T01:10:49;99592.94;;;-17.07;65.58
45369;BME280;51342;55.250;37.668;2023-02-23T01:13:23;99598.13;;;-17.05;65.50
45369;BME280;51342;55.250;37.668;2023-02-23T01:15:56;99605.78;;;-17.04;65.54
45369;BME280;51342;55.250;37.668;2023-02-23T01:18:29;99601.25;;;-17.06;65.63
45369;BME280;51342;55.250;37.668;2023-02-23T01:21:02;99601.25;;;-17.06;65.59
45369;BME280;51342;55.250;37.668;2023-02-23T01:23:36;99603.06;;;-17.05;65.54
45369;BME280;51342;55.250;37.668;2023-02-23T01:26:16;99612.44;;;-17.08;65.44
45369;BME280;51342;55.250;37.668;2023-02-23T01:28:55;99609.97;;;-17.08;65.69
45369;BME280;51342;55.250;37.668;2023-02-23T01:31:29;99608.69;;;-17.06;65.63
45369;BME280;51342;55.250;37.668;2023-02-23T01:34:02;99607.56;;;-17.03;65.34
45369;BME280;51342;55.250;37.668;2023-02-23T01:36:36;99619.94;;;-17.03;65.55
45369;BME280;51342;55.250;37.668;2023-02-23T01:39:14;99617.91;;;-17.05;65.28
45369;BME280;51342;55.250;37.668;2023-02-23T01:41:46;99616.72;;;-17.07;65.62
45369;BME280;51342;55.250;37.668;2023-02-23T01:46:50;99621.38;;;-17.15;65.70
45369;BME280;51342;55.250;37.668;2023-02-23T01:49:26;99621.28;;;-17.20;65.60
45369;BME280;51342;55.250;37.668;2023-02-23T01:52:05;99644.44;;;-17.20;66.01
45369;BME280;51342;55.250;37.668;2023-02-23T01:54:41;99643.06;;;-17.23;65.79
45369;BME280;51342;55.250;37.668;2023-02-23T01:57:13;99642.56;;;-17.26;66.02
45369;BME280;51342;55.250;37.668;2023-02-23T01:59:47;99642.31;;;-17.28;65.97
45369;BME280;51342;55.250;37.668;2023-02-23T02:02:22;99646.09;;;-17.30;65.95
45369;BME280;51342;55.250;37.668;2023-02-23T02:04:53;99645.19;;;-17.30;65.81
45369;BME280;51342;55.250;37.668;2023-02-23T02:07:33;99633.25;;;-17.33;65.84
45369;BME280;51342;55.250;37.668;2023-02-23T02:10:10;99624.19;;;-17.38;66.08
45369;BME280;51342;55.250;37.668;2023-02-23T02:12:44;99639.03;;;-17.38;65.86
45369;BME280;51342;55.250;37.668;2023-02-23T02:15:15;99633.59;;;-17.41;66.11
45369;BME280;51342;55.250;37.668;2023-02-23T02:21:22;99648.59;;;-17.45;65.74
45369;BME280;51342;55.250;37.668;2023-02-23T02:29:34;99645.63;;;-17.48;65.85
45369;BME280;51342;55.250;37.668;2023-02-23T02:32:30;99644.47;;;-17.50;65.86
45369;BME280;51342;55.250;37.668;2023-02-23T02:41:07;99642.50;;;-17.78;65.87
45369;BME280;51342;55.250;37.668;2023-02-23T02:46:38;99665.31;;;-17.84;65.99
45369;BME280;51342;55.250;37.668;2023-02-23T02:49:13;99681.28;;;-17.82;65.90
45369;BME280;51342;55.250;37.668;2023-02-23T02:51:57;99682.50;;;-17.90;66.06
45369;BME280;51342;55.250;37.668;2023-02-23T02:54:50;99674.22;;;-18.00;65.96
45369;BME280;51342;55.250;37.668;2023-02-23T02:57:25;99679.16;;;-18.00;65.93
45369;BME280;51342;55.250;37.668;2023-02-23T02:59:58;99681.41;;;-18.02;65.98
45369;BME280;51342;55.250;37.668;2023-02-23T03:02:48;99676.59;;;-18.06;65.91
45369;BME280;51342;55.250;37.668;2023-02-23T03:05:44;99672.72;;;-18.09;65.93
45369;BME280;51342;55.250;37.668;2023-02-23T03:08:38;99676.34;;;-18.07;65.82
45369;BME280;51342;55.250;37.668;2023-02-23T03:11:37;99671.88;;;-18.19;65.76
45369;BME280;51342;55.250;37.668;2023-02-23T03:14:45;99680.47;;;-18.27;65.87
45369;BME280;51342;55.250;37.668;2023-02-23T03:17:45;99677.91;;;-18.33;65.94
45369;BME280;51342;55.250;37.668;2023-02-23T03:20:42;99688.47;;;-18.43;65.76
45369;BME280;51342;55.250;37.668;2023-02-23T03:23:58;99692.13;;;-18.51;65.91
45369;BME280;51342;55.250;37.668;2023-02-23T03:26:58;99694.91;;;-18.59;65.95
45369;BME280;51342;55.250;37.668;2023-02-23T03:30:15;99699.72;;;-18.65;65.98
45369;BME280;51342;55.250;37.668;2023-02-23T03:33:15;99695.19;;;-18.67;65.71
45369;BME280;51342;55.250;37.668;2023-02-23T03:36:12;99696.34;;;-18.65;65.88
45369;BME280;51342;55.250;37.668;2023-02-23T03:39:46;99706.84;;;-18.66;65.87
45369;BME280;51342;55.250;37.668;2023-02-23T03:42:20;99692.91;;;-18.81;65.54
45369;BME280;51342;55.250;37.668;2023-02-23T03:45:18;99705.63;;;-18.84;65.67
45369;BME280;51342;55.250;37.668;2023-02-23T03:48:11;99701.09;;;-18.96;65.76
45369;BME280;51342;55.250;37.668;2023-02-23T03:51:05;99704.34;;;-19.01;65.94
45369;BME280;51342;55.250;37.668;2023-02-23T03:54:02;99707.84;;;-18.95;65.88
45369;BME280;51342;55.250;37.668;2023-02-23T03:56:58;99705.91;;;-19.02;65.84
45369;BME280;51342;55.250;37.668;2023-02-23T03:59:54;99708.91;;;-19.08;65.87
45369;BME280;51342;55.250;37.668;2023-02-23T04:02:48;99706.31;;;-19.04;65.70
45369;BME280;51342;55.250;37.668;2023-02-23T04:05:40;99708.00;;;-18.99;65.83
45369;BME280;51342;55.250;37.668;2023-02-23T04:08:34;99708.25;;;-18.97;65.72
45369;BME280;51342;55.250;37.668;2023-02-23T04:14:59;99714.63;;;-18.94;65.29
45369;BME280;51342;55.250;37.668;2023-02-23T04:17:32;99712.16;;;-19.04;65.46
45369;BME280;51342;55.250;37.668;2023-02-23T04:20:04;99733.28;;;-19.00;65.52
45369;BME280;51342;55.250;37.668;2023-02-23T04:22:37;99727.06;;;-19.08;65.53
45369;BME280;51342;55.250;37.668;2023-02-23T04:25:09;99735.78;;;-19.10;65.53
45369;BME280;51342;55.250;37.668;2023-02-23T04:27:41;99726.81;;;-19.09;65.50
45369;BME280;51342;55.250;37.668;2023-02-23T04:30:13;99729.28;;;-19.09;65.40
45369;BME280;51342;55.250;37.668;2023-02-23T04:32:44;99734.09;;;-19.05;65.58
45369;BME280;51342;55.250;37.668;2023-02-23T04:35:16;99730.19;;;-19.09;65.42
45369;BME280;51342;55.250;37.668;2023-02-23T04:37:47;99729.53;;;-19.08;65.40
45369;BME280;51342;55.250;37.668;2023-02-23T04:40:19;99734.72;;;-19.06;65.53
45369;BME280;51342;55.250;37.668;2023-02-23T04:42:51;99737.72;;;-19.03;65.56
45369;BME280;51342;55.250;37.668;2023-02-23T04:45:24;99730.44;;;-19.07;65.36
45369;BME280;51342;55.250;37.668;2023-02-23T04:47:55;99742.53;;;-19.09;65.52
45369;BME280;51342;55.250;37.668;2023-02-23T04:50:27;99745.22;;;-19.07;65.53
45369;BME280;51342;55.250;37.668;2023-02-23T04:52:58;99754.72;;;-19.05;65.55
45369;BME280;51342;55.250;37.668;2023-02-23T04:55:30;99744.22;;;-19.04;65.63
45369;BME280;51342;55.250;37.668;2023-02-23T04:58:02;99750.69;;;-19.04;65.23
45369;BME280;51342;55.250;37.668;2023-02-23T05:00:34;99753.00;;;-19.00;65.48
45369;BME280;51342;55.250;37.668;2023-02-23T05:03:06;99751.84;;;-18.92;65.42
45369;BME280;51342;55.250;37.668;2023-02-23T05:05:38;99752.63;;;-18.88;65.28
45369;BME280;51342;55.250;37.668;2023-02-23T05:08:09;99757.41;;;-18.84;65.24
45369;BME280;51342;55.250;37.668;2023-02-23T05:10:41;99761.31;;;-18.80;65.25
45369;BME280;51342;55.250;37.668;2023-02-23T05:13:13;99761.06;;;-18.82;64.99
45369;BME280;51342;55.250;37.668;2023-02-23T05:15:46;99766.00;;;-18.82;65.00
45369;BME280;51342;55.250;37.668;2023-02-23T05:18:19;99765.72;;;-18.83;65.22
45369;BME280;51342;55.250;37.668;2023-02-23T05:20:51;99773.00;;;-18.79;65.06
45369;BME280;51342;55.250;37.668;2023-02-23T05:23:23;99760.41;;;-18.81;65.27
45369;BME280;51342;55.250;37.668;2023-02-23T05:26:03;99764.44;;;-18.71;65.02
45369;BME280;51342;55.250;37.668;2023-02-23T05:28:38;99772.28;;;-18.59;65.13
45369;BME280;51342;55.250;37.668;2023-02-23T05:31:13;99774.09;;;-18.48;64.88
45369;BME280;51342;55.250;37.668;2023-02-23T05:33:45;99759.66;;;-18.41;64.90
45369;BME280;51342;55.250;37.668;2023-02-23T05:36:20;99772.09;;;-18.26;64.67
45369;BME280;51342;55.250;37.668;2023-02-23T05:38:52;99766.84;;;-18.17;64.72
45369;BME280;51342;55.250;37.668;2023-02-23T05:41:24;99773.31;;;-18.08;64.77
45369;BME280;51342;55.250;37.668;2023-02-23T05:43:56;99781.84;;;-17.97;64.71
45369;BME280;51342;55.250;37.668;2023-02-23T05:46:29;99780.97;;;-17.82;64.38
45369;BME280;51342;55.250;37.668;2023-02-23T05:49:01;99780.03;;;-17.73;64.50
45369;BME280;51342;55.250;37.668;2023-02-23T05:51:34;99779.66;;;-17.55;64.61
45369;BME280;51342;55.250;37.668;2023-02-23T05:54:06;99770.84;;;-17.43;64.48
45369;BME280;51342;55.250;37.668;2023-02-23T05:56:40;99775.59;;;-17.29;64.44
45369;BME280;51342;55.250;37.668;2023-02-23T05:59:12;99782.13;;;-17.15;64.43
45369;BME280;51342;55.250;37.668;2023-02-23T06:01:48;99782.81;;;-17.00;64.37
45369;BME280;51342;55.250;37.668;2023-02-23T06:04:20;99779.25;;;-16.81;64.34
45369;BME280;51342;55.250;37.668;2023-02-23T06:06:55;99791.34;;;-16.68;64.29
45369;BME280;51342;55.250;37.668;2023-02-23T06:09:28;99792.91;;;-16.53;64.07
45369;BME280;51342;55.250;37.668;2023-02-23T06:12:02;99784.47;;;-16.44;64.13
45369;BME280;51342;55.250;37.668;2023-02-23T06:14:37;99782.63;;;-16.29;64.15
45369;BME280;51342;55.250;37.668;2023-02-23T06:17:11;99783.00;;;-16.17;64.21
45369;BME280;51342;55.250;37.668;2023-02-23T06:19:45;99782.06;;;-16.02;64.25
45369;BME280;51342;55.250;37.668;2023-02-23T06:22:19;99787.38;;;-15.89;64.18
45369;BME280;51342;55.250;37.668;2023-02-23T06:24:53;99781.66;;;-15.79;64.24
45369;BME280;51342;55.250;37.668;2023-02-23T06:27:28;99785.16;;;-15.67;64.32
45369;BME280;51342;55.250;37.668;2023-02-23T06:30:01;99779.88;;;-15.53;64.19
45369;BME280;51342;55.250;37.668;2023-02-23T06:32:35;99779.97;;;-15.42;64.10
45369;BME280;51342;55.250;37.668;2023-02-23T06:35:10;99781.66;;;-15.31;64.33
45369;BME280;51342;55.250;37.668;2023-02-23T06:37:44;99783.28;;;-15.20;64.33
45369;BME280;51342;55.250;37.668;2023-02-23T06:40:20;99782.75;;;-15.08;64.39
45369;BME280;51342;55.250;37.668;2023-02-23T06:42:53;99785.34;;;-14.91;64.31
45369;BME280;51342;55.250;37.668;2023-02-23T06:45:29;99780.94;;;-14.77;64.29
45369;BME280;51342;55.250;37.668;2023-02-23T06:48:05;99786.78;;;-14.77;64.17
45369;BME280;51342;55.250;37.668;2023-02-23T06:50:39;99782.44;;;-14.57;64.01
45369;BME280;51342;55.250;37.668;2023-02-23T06:53:14;99787.88;;;-14.43;64.12
45369;BME280;51342;55.250;37.668;2023-02-23T06:55:53;99794.09;;;-14.18;64.04
45369;BME280;51342;55.250;37.668;2023-02-23T06:58:31;99792.63;;;-14.01;63.97
45369;BME280;51342;55.250;37.668;2023-02-23T07:01:07;99789.06;;;-13.80;63.88
45369;BME280;51342;55.250;37.668;2023-02-23T07:03:45;99777.34;;;-13.70;63.95
45369;BME280;51342;55.250;37.668;2023-02-23T07:06:20;99784.84;;;-13.53;64.05
45369;BME280;51342;55.250;37.668;2023-02-23T07:08:57;99789.16;;;-13.35;63.89
45369;BME280;51342;55.250;37.668;2023-02-23T07:11:33;99793.91;;;-13.20;63.93
45369;BME280;51342;55.250;37.668;2023-02-23T07:14:08;99788.03;;;-13.04;63.88
45369;BME280;51342;55.250;37.668;2023-02-23T07:16:43;99788.69;;;-12.88;64.20
45369;BME280;51342;55.250;37.668;2023-02-23T07:19:20;99799.34;;;-12.72;64.04
45369;BME280;51342;55.250;37.668;2023-02-23T07:21:56;99796.16;;;-12.60;64.13
45369;BME280;51342;55.250;37.668;2023-02-23T07:24:30;99805.19;;;-12.44;63.79
45369;BME280;51342;55.250;37.668;2023-02-23T07:27:04;99802.22;;;-12.30;64.03
45369;BME280;51342;55.250;37.668;2023-02-23T07:29:39;99794.72;;;-12.19;64.12
45369;BME280;51342;55.250;37.668;2023-02-23T07:32:13;99803.47;;;-11.98;63.92
45369;BME280;51342;55.250;37.668;2023-02-23T07:34:51;99800.91;;;-11.82;63.85
45369;BME280;51342;55.250;37.668;2023-02-23T07:37:27;99795.16;;;-11.69;63.82
45369;BME280;51342;55.250;37.668;2023-02-23T07:40:01;99806.63;;;-11.53;63.33
45369;BME280;51342;55.250;37.668;2023-02-23T07:42:35;99801.78;;;-11.40;63.62
45369;BME280;51342;55.250;37.668;2023-02-23T07:45:15;99795.38;;;-11.27;63.54
45369;BME280;51342;55.250;37.668;2023-02-23T07:47:49;99793.56;;;-11.28;63.80
45369;BME280;51342;55.250;37.668;2023-02-23T07:50:27;99805.22;;;-11.05;63.39
45369;BME280;51342;55.250;37.668;2023-02-23T07:53:03;99803.03;;;-10.90;63.57
45369;BME280;51342;55.250;37.668;2023-02-23T07:55:39;99801.09;;;-10.75;63.32
45369;BME280;51342;55.250;37.668;2023-02-23T07:58:15;99801.91;;;-10.63;63.30
45369;BME280;51342;55.250;37.668;2023-02-23T08:00:51;99810.84;;;-10.47;63.09
45369;BME280;51342;55.250;37.668;2023-02-23T08:03:27;99806.69;;;-10.40;63.14
45369;BME280;51342;55.250;37.668;2023-02-23T08:06:02;99814.78;;;-10.30;63.03
45369;BME280;51342;55.250;37.668;2023-02-23T08:08:40;99819.94;;;-10.23;63.02
45369;BME280;51342;55.250;37.668;2023-02-23T08:11:16;99810.53;;;-10.19;63.06
45369;BME280;51342;55.250;37.668;2023-02-23T08:13:50;99812.78;;;-10.15;62.79
45369;BME280;51342;55.250;37.668;2023-02-23T08:16:27;99815.16;;;-10.03;62.67
45369;BME280;51342;55.250;37.668;2023-02-23T08:19:02;99801.44;;;-10.00;62.66
45369;BME280;51342;55.250;37.668;2023-02-23T08:21:39;99805.84;;;-9.86;62.48
45369;BME280;51342;55.250;37.668;2023-02-23T08:24:18;99803.63;;;-9.72;62.40
45369;BME280;51342;55.250;37.668;2023-02-23T08:26:55;99803.91;;;-9.57;61.96
45369;BME280;51342;55.250;37.668;2023-02-23T08:29:30;99808.06;;;-9.45;62.00
45369;BME280;51342;55.250;37.668;2023-02-23T08:32:09;99814.59;;;-9.40;61.94
45369;BME280;51342;55.250;37.668;2023-02-23T08:34:42;99807.22;;;-9.33;61.73
45369;BME280;51342;55.250;37.668;2023-02-23T08:37:17;99813.38;;;-9.18;61.77
45369;BME280;51342;55.250;37.668;2023-02-23T08:39:52;99807.78;;;-9.10;61.56
45369;BME280;51342;55.250;37.668;2023-02-23T08:42:30;99799.47;;;-9.03;61.44
45369;BME280;51342;55.250;37.668;2023-02-23T08:45:05;99796.50;;;-9.01;61.65
45369;BME280;51342;55.250;37.668;2023-02-23T08:47:39;99797.00;;;-8.91;61.57
45369;BME280;51342;55.250;37.668;2023-02-23T08:50:13;99799.13;;;-8.81;61.38
45369;BME280;51342;55.250;37.668;2023-02-23T08:52:44;99780.28;;;-8.85;61.20
45369;BME280;51342;55.250;37.668;2023-02-23T08:55:19;99792.94;;;-8.77;60.87
45369;BME280;51342;55.250;37.668;2023-02-23T08:57:58;99795.44;;;-8.77;60.81
45369;BME280;51342;55.250;37.668;2023-02-23T09:00:35;99788.00;;;-8.70;60.72
45369;BME280;51342;55.250;37.668;2023-02-23T09:03:12;99792.56;;;-8.55;60.79
45369;BME280;51342;55.250;37.668;2023-02-23T09:05:45;99789.72;;;-8.51;60.44
45369;BME280;51342;55.250;37.668;2023-02-23T09:08:26;99786.72;;;-8.48;60.44
45369;BME280;51342;55.250;37.668;2023-02-23T09:11:01;99785.22;;;-8.41;60.48
45369;BME280;51342;55.250;37.668;2023-02-23T09:13:35;99771.06;;;-8.40;60.43
45369;BME280;51342;55.250;37.668;2023-02-23T09:16:17;99775.03;;;-8.35;60.17
45369;BME280;51342;55.250;37.668;2023-02-23T09:18:51;99784.06;;;-8.30;60.11
45369;BME280;51342;55.250;37.668;2023-02-23T09:21:25;99774.75;;;-8.31;59.80
45369;BME280;51342;55.250;37.668;2023-02-23T09:24:02;99769.16;;;-8.48;60.47
45369;BME280;51342;55.250;37.668;2023-02-23T09:26:33;99770.03;;;-8.35;60.37
45369;BME280;51342;55.250;37.668;2023-02-23T09:29:12;99774.34;;;-8.21;59.69
45369;BME280;51342;55.250;37.668;2023-02-23T09:31:48;99776.75;;;-8.16;59.65
45369;BME280;51342;55.250;37.668;2023-02-23T09:34:26;99790.28;;;-8.08;59.56
45369;BME280;51342;55.250;37.668;2023-02-23T09:37:05;99787.06;;;-8.07;59.62
45369;BME280;51342;55.250;37.668;2023-02-23T09:39:45;99793.31;;;-8.11;59.48
45369;BME280;51342;55.250;37.668;2023-02-23T09:46:01;99790.16;;;-8.03;59.30
45369;BME280;51342;55.250;37.668;2023-02-23T09:48:19;99778.03;;;-7.99;59.18
45369;BME280;51342;55.250;37.668;2023-02-23T09:50:57;99785.94;;;-7.96;59.03
45369;BME280;51342;55.250;37.668;2023-02-23T09:56:37;99790.97;;;-7.96;58.94
45369;BME280;51342;55.250;37.668;2023-02-23T09:59:17;99793.88;;;-7.93;58.83
45369;BME280;51342;55.250;37.668;2023-02-23T10:02:37;99783.63;;;-7.95;59.05
45369;BME280;51342;55.250;37.668;2023-02-23T10:05:14;99776.09;;;-7.95;58.61
45369;BME280;51342;55.250;37.668;2023-02-23T10:08:06;99766.56;;;-7.97;58.57
45369;BME280;51342;55.250;37.668;2023-02-23T10:10:50;99770.28;;;-7.88;58.42
45369;BME280;51342;55.250;37.668;2023-02-23T10:13:32;99770.34;;;-7.81;58.42
45369;BME280;51342;55.250;37.668;2023-02-23T10:22:04;99756.78;;;-7.76;58.03
45369;BME280;51342;55.250;37.668;2023-02-23T10:24:55;99748.91;;;-7.72;58.12
45369;BME280;51342;55.250;37.668;2023-02-23T10:27:45;99753.31;;;-7.64;57.79
45369;BME280;51342;55.250;37.668;2023-02-23T10:30:30;99759.94;;;-7.64;57.74
45369;BME280;51342;55.250;37.668;2023-02-23T10:33:32;99754.22;;;-7.63;57.76
45369;BME280;51342;55.250;37.668;2023-02-23T10:36:27;99759.25;;;-7.63;57.72
45369;BME280;51342;55.250;37.668;2023-02-23T10:39:05;99757.31;;;-7.59;57.50
45369;BME280;51342;55.250;37.668;2023-02-23T10:41:41;99754.28;;;-7.56;57.34
45369;BME280;51342;55.250;37.668;2023-02-23T10:44:24;99749.97;;;-7.57;57.26
45369;BME280;51342;55.250;37.668;2023-02-23T10:47:05;99752.47;;;-7.57;57.22
45369;BME280;51342;55.250;37.668;2023-02-23T10:49:50;99751.19;;;-7.61;57.26
45369;BME280;51342;55.250;37.668;2023-02-23T10:55:04;99744.34;;;-7.62;57.39
45369;BME280;51342;55.250;37.668;2023-02-23T10:57:40;99740.75;;;-7.64;57.49
45369;BME280;51342;55.250;37.668;2023-02-23T11:02:58;99734.44;;;-7.67;57.49
45369;BME280;51342;55.250;37.668;2023-02-23T11:05:50;99745.00;;;-7.70;57.61
45369;BME280;51342;55.250;37.668;2023-02-23T11:08:38;99734.56;;;-7.73;57.51
45369;BME280;51342;55.250;37.668;2023-02-23T11:13:52;99734.19;;;-7.76;57.67
45369;BME280;51342;55.250;37.668;2023-02-23T11:16:37;99740.22;;;-7.81;57.57
45369;BME280;51342;55.250;37.668;2023-02-23T11:19:23;99757.38;;;-7.84;57.63
45369;BME280;51342;55.250;37.668;2023-02-23T11:22:01;99762.03;;;-7.87;57.75
45369;BME280;51342;55.250;37.668;2023-02-23T11:24:41;99764.84;;;-7.91;57.80
45369;BME280;51342;55.250;37.668;2023-02-23T11:27:24;99756.34;;;-7.99;57.87
45369;BME280;51342;55.250;37.668;2023-02-23T11:30:04;99751.81;;;-8.02;57.94
45369;BME280;51342;55.250;37.668;2023-02-23T11:32:41;99762.03;;;-8.00;57.89
45369;BME280;51342;55.250;37.668;2023-02-23T11:37:55;99756.03;;;-8.08;58.16
45369;BME280;51342;55.250;37.668;2023-02-23T11:40:34;99761.34;;;-8.12;58.11
45369;BME280;51342;55.250;37.668;2023-02-23T11:43:14;99760.56;;;-8.18;58.29
45369;BME280;51342;55.250;37.668;2023-02-23T11:45:59;99751.94;;;-8.20;58.24
45369;BME280;51342;55.250;37.668;2023-02-23T11:48:46;99753.38;;;-8.22;58.27
45369;BME280;51342;55.250;37.668;2023-02-23T11:54:26;99757.47;;;-8.22;58.33
45369;BME280;51342;55.250;37.668;2023-02-23T11:57:02;99754.28;;;-8.21;58.44
45369;BME280;51342;55.250;37.668;2023-02-23T11:59:42;99747.03;;;-8.25;58.35
45369;BME280;51342;55.250;37.668;2023-02-23T12:02:30;99748.47;;;-8.28;58.37
45369;BME280;51342;55.250;37.668;2023-02-23T12:10:54;99742.66;;;-8.34;58.54
45369;BME280;51342;55.250;37.668;2023-02-23T12:16:42;99744.94;;;-8.35;58.69
45369;BME280;51342;55.250;37.668;2023-02-23T12:19:46;99742.78;;;-8.39;58.71
45369;BME280;51342;55.250;37.668;2023-02-23T12:23:01;99733.94;;;-8.43;58.73
45369;BME280;51342;55.250;37.668;2023-02-23T12:25:56;99724.41;;;-8.45;58.78
45369;BME280;51342;55.250;37.668;2023-02-23T12:28:56;99727.84;;;-8.45;58.78
45369;BME280;51342;55.250;37.668;2023-02-23T12:31:59;99735.13;;;-8.46;58.83
45369;BME280;51342;55.250;37.668;2023-02-23T12:34:51;99737.16;;;-8.44;58.88
45369;BME280;51342;55.250;37.668;2023-02-23T12:37:40;99753.13;;;-8.43;58.83
45369;BME280;51342;55.250;37.668;2023-02-23T12:40:32;99746.78;;;-8.47;58.87
45369;BME280;51342;55.250;37.668;2023-02-23T12:44:07;99750.19;;;-8.46;58.97
45369;BME280;51342;55.250;37.668;2023-02-23T12:46:47;99740.69;;;-8.49;58.92
45369;BME280;51342;55.250;37.668;2023-02-23T12:49:34;99741.97;;;-8.45;58.86
45369;BME280;51342;55.250;37.668;2023-02-23T12:52:26;99742.47;;;-8.48;58.76
45369;BME280;51342;55.250;37.668;2023-02-23T12:55:11;99742.47;;;-8.48;58.83
45369;BME280;51342;55.250;37.668;2023-02-23T12:58:06;99744.78;;;-8.49;58.93
45369;BME280;51342;55.250;37.668;2023-02-23T13:03:53;99748.91;;;-8.50;59.11
45369;BME280;51342;55.250;37.668;2023-02-23T13:06:52;99748.50;;;-8.53;59.05
45369;BME280;51342;55.250;37.668;2023-02-23T13:09:43;99749.19;;;-8.54;59.17
45369;BME280;51342;55.250;37.668;2023-02-23T13:12:28;99755.81;;;-8.55;59.40
45369;BME280;51342;55.250;37.668;2023-02-23T13:17:56;99752.91;;;-8.58;59.28
45369;BME280;51342;55.250;37.668;2023-02-23T13:20:46;99754.31;;;-8.60;59.20
45369;BME280;51342;55.250;37.668;2023-02-23T13:26:29;99750.00;;;-8.61;59.42
45369;BME280;51342;55.250;37.668;2023-02-23T13:29:48;99757.41;;;-8.68;59.33
45369;BME280;51342;55.250;37.668;2023-02-23T13:32:25;99756.72;;;-8.67;59.45
45369;BME280;51342;55.250;37.668;2023-02-23T13:35:12;99751.00;;;-8.66;59.35
45369;BME280;51342;55.250;37.668;2023-02-23T13:38:18;99747.88;;;-8.70;59.38
45369;BME280;51342;55.250;37.668;2023-02-23T13:41:05;99751.81;;;-8.72;59.67
45369;BME280;51342;55.250;37.668;2023-02-23T13:43:52;99753.91;;;-8.75;59.41
45369;BME280;51342;55.250;37.668;2023-02-23T13:52:01;99752.91;;;-8.83;59.57
45369;BME280;51342;55.250;37.668;2023-02-23T13:54:56;99754.78;;;-9.00;59.97
45369;BME280;51342;55.250;37.668;2023-02-23T13:57:42;99760.09;;;-8.92;59.76
45369;BME280;51342;55.250;37.668;2023-02-23T14:00:23;99755.78;;;-8.93;59.65
45369;BME280;51342;55.250;37.668;2023-02-23T14:03:04;99749.59;;;-8.89;59.98
45369;BME280;51342;55.250;37.668;2023-02-23T14:05:43;99760.31;;;-8.90;59.81
45369;BME280;51342;55.250;37.668;2023-02-23T14:08:32;99757.91;;;-8.96;59.60
45369;BME280;51342;55.250;37.668;2023-02-23T14:11:28;99758.91;;;-9.01;59.90
45369;BME280;51342;55.250;37.668;2023-02-23T14:14:45;99769.41;;;-9.03;60.03
45369;BME280;51342;55.250;37.668;2023-02-23T14:26:07;99766.16;;;-9.15;60.45
45369;BME280;51342;55.250;37.668;2023-02-23T14:35:04;99760.31;;;-9.34;60.76
45369;BME280;51342;55.250;37.668;2023-02-23T14:37:41;99756.47;;;-9.38;60.57
45369;BME280;51342;55.250;37.668;2023-02-23T14:40:20;99748.66;;;-9.46;60.59
45369;BME280;51342;55.250;37.668;2023-02-23T14:43:28;99760.06;;;-9.48;60.64
45369;BME280;51342;55.250;37.668;2023-02-23T14:46:02;99756.03;;;-9.53;60.86
45369;BME280;51342;55.250;37.668;2023-02-23T14:51:47;99755.97;;;-9.66;60.99
45369;BME280;51342;55.250;37.668;2023-02-23T14:54:35;99741.72;;;-9.73;61.01
45369;BME280;51342;55.250;37.668;2023-02-23T14:57:24;99747.09;;;-9.82;61.10
45369;BME280;51342;55.250;37.668;2023-02-23T15:00:25;99743.28;;;-9.86;61.22
45369;BME280;51342;55.250;37.668;2023-02-23T15:03:09;99744.97;;;-9.92;61.09
45369;BME280;51342;55.250;37.668;2023-02-23T15:06:08;99745.50;;;-10.00;61.13
45369;BME280;51342;55.250;37.668;2023-02-23T15:08:45;99744.19;;;-10.04;61.36
45369;BME280;51342;55.250;37.668;2023-02-23T15:11:26;99749.03;;;-10.11;61.30
45369;BME280;51342;55.250;37.668;2023-02-23T15:14:03;99749.59;;;-10.19;61.42
45369;BME280;51342;55.250;37.668;2023-02-23T15:16:40;99744.97;;;-10.29;61.29
45369;BME280;51342;55.250;37.668;2023-02-23T15:19:20;99740.09;;;-10.40;61.50
45369;BME280;51342;55.250;37.668;2023-02-23T15:21:57;99748.53;;;-10.45;61.79